Time;durP1;ratioP1;P1;durP2;ratioP2;P2;SDS_P1;SDS_P2;PMS_P1;PMS_P2;Temp;Humidity;BMP_temperature;BMP_pressure;BME280_temperature;BME280_humidity;BME280_pressure;Samples;Min_cycle;Max_cycle;Signal;HPM_P1;HPM_P2
2022/11/09 00:01:33;;;;;;;21.95;9.13;;;;;;;7.59;100.00;99360.34;4997573;28;20049;-52
2022/11/09 00:04:00;;;;;;;17.60;8.18;;;;;;;7.76;100.00;99386.59;5008252;28;20033;-56
2022/11/09 00:06:27;;;;;;;26.88;11.88;;;;;;;7.74;100.00;99382.38;5010359;28;20220;-50
2022/11/09 00:08:53;;;;;;;24.65;10.93;;;;;;;7.75;100.00;99405.59;5009635;28;20038;-55
2022/11/09 00:11:19;;;;;;;25.58;11.48;;;;;;;7.72;100.00;99378.97;5005997;28;20037;-53
2022/11/09 00:13:45;;;;;;;18.65;8.90;;;;;;;7.75;100.00;99386.63;4993938;28;20065;-54
2022/11/09 00:16:14;;;;;;;25.55;10.68;;;;;;;7.67;100.00;99384.28;5010152;28;20042;-58
2022/11/09 00:18:46;;;;;;;31.02;11.10;;;;;;;7.74;100.00;99384.97;5010549;28;20522;-57
2022/11/09 00:21:16;;;;;;;23.33;11.07;;;;;;;7.79;100.00;99393.44;5012605;28;20112;-56
2022/11/09 00:23:41;;;;;;;25.75;11.75;;;;;;;7.79;100.00;99396.03;5013663;28;20517;-53
2022/11/09 00:26:09;;;;;;;24.23;10.20;;;;;;;7.75;100.00;99392.66;5000128;28;20056;-54
2022/11/09 00:28:35;;;;;;;21.17;10.90;;;;;;;7.76;100.00;99391.78;4993152;28;20128;-53
2022/11/09 00:31:07;;;;;;;21.98;10.70;;;;;;;7.77;100.00;99395.22;5010629;28;20099;-53
2022/11/09 00:33:33;;;;;;;28.70;11.45;;;;;;;7.79;100.00;99402.06;5010645;28;20592;-52
2022/11/09 00:36:06;;;;;;;25.75;10.80;;;;;;;7.80;100.00;99401.16;5010066;28;20045;-55
2022/11/09 00:38:36;;;;;;;22.83;10.85;;;;;;;7.68;100.00;99380.81;5025405;28;20105;-54
2022/11/09 00:41:04;;;;;;;23.48;10.40;;;;;;;7.67;100.00;99379.09;5008272;28;20503;-54
2022/11/09 00:43:31;;;;;;;33.45;11.88;;;;;;;7.82;100.00;99399.38;5007695;28;20034;-53
2022/11/09 00:45:57;;;;;;;28.88;12.32;;;;;;;7.86;100.00;99393.22;4993450;28;20046;-52
2022/11/09 00:48:23;;;;;;;27.33;11.60;;;;;;;7.64;100.00;99376.63;5011348;28;20045;-51
2022/11/09 00:50:53;;;;;;;27.27;10.52;;;;;;;7.83;100.00;99415.75;5025830;28;20061;-54
2022/11/09 00:53:19;;;;;;;26.05;11.48;;;;;;;7.83;100.00;99405.41;5007302;28;20037;-56
2022/11/09 00:55:59;;;;;;;24.25;10.77;;;;;;;7.83;100.00;99401.09;5007579;28;20072;-54
2022/11/09 00:58:27;;;;;;;22.77;10.73;;;;;;;7.81;100.00;99405.44;5007702;28;20037;-51
2022/11/09 01:00:54;;;;;;;22.33;10.63;;;;;;;7.82;100.00;99398.53;5008009;28;20520;-53
2022/11/09 01:03:21;;;;;;;28.98;12.10;;;;;;;7.83;100.00;99395.06;5013632;28;20121;-55
2022/11/09 01:05:47;;;;;;;23.75;10.70;;;;;;;7.58;100.00;99358.66;5011732;28;20512;-52
2022/11/09 01:08:16;;;;;;;26.48;12.20;;;;;;;7.53;100.00;99351.03;5010427;28;20067;-53
2022/11/09 01:10:44;;;;;;;32.63;12.68;;;;;;;7.74;100.00;99393.59;4994989;28;20061;-55
2022/11/09 01:13:11;;;;;;;27.45;11.63;;;;;;;7.67;100.00;99402.38;5009514;28;20045;-55
2022/11/09 01:15:45;;;;;;;30.77;13.05;;;;;;;7.62;100.00;99399.94;4992804;28;20049;-56
2022/11/09 01:18:12;;;;;;;22.33;9.55;;;;;;;7.61;100.00;99407.72;5010445;28;20420;-52
2022/11/09 01:20:40;;;;;;;32.85;13.48;;;;;;;7.57;100.00;99406.13;5010221;28;20069;-57
2022/11/09 01:23:06;;;;;;;20.23;9.57;;;;;;;7.57;100.00;99416.47;5020149;28;20420;-54
2022/11/09 01:25:32;;;;;;;31.83;13.32;;;;;;;7.59;100.00;99407.75;4991853;28;20065;-56
2022/11/09 01:27:58;;;;;;;38.80;13.77;;;;;;;7.60;100.00;99412.03;5008791;28;20133;-55
2022/11/09 01:30:25;;;;;;;25.23;11.55;;;;;;;7.59;100.00;99404.31;5009953;28;20056;-55
2022/11/09 01:32:52;;;;;;;29.13;13.50;;;;;;;7.59;100.00;99404.31;4992491;28;20128;-52
2022/11/09 01:35:18;;;;;;;27.13;11.10;;;;;;;7.57;100.00;99408.69;4976218;28;20042;-54
2022/11/09 01:37:44;;;;;;;31.40;13.43;;;;;;;7.56;100.00;99410.44;5009932;28;20104;-56
2022/11/09 01:40:11;;;;;;;33.60;12.43;;;;;;;7.54;100.00;99416.53;5025250;28;20046;-52
2022/11/09 01:42:38;;;;;;;32.30;12.00;;;;;;;7.51;100.00;99417.47;5024331;28;20423;-52
2022/11/09 01:45:17;;;;;;;32.65;13.82;;;;;;;7.50;100.00;99415.75;5009779;28;20098;-55
2022/11/09 01:47:53;;;;;;;32.80;13.30;;;;;;;7.36;100.00;99386.84;5009585;28;20055;-53
2022/11/09 01:50:29;;;;;;;20.73;9.40;;;;;;;7.51;100.00;99409.72;4993721;28;20049;-57
2022/11/09 01:52:55;;;;;;;45.10;16.80;;;;;;;7.51;100.00;99411.44;5009756;28;20060;-58
2022/11/09 01:55:23;;;;;;;41.25;15.93;;;;;;;7.55;100.00;99415.63;5006731;28;20044;-60
2022/11/09 01:57:54;;;;;;;34.45;15.20;;;;;;;7.56;100.00;99413.03;4974140;28;20042;-54
2022/11/09 02:00:20;;;;;;;37.90;14.45;;;;;;;7.58;100.00;99416.44;4990331;28;20124;-57
2022/11/09 02:02:50;;;;;;;26.02;11.75;;;;;;;7.59;100.00;99419.84;5020927;28;20080;-56
2022/11/09 02:05:21;;;;;;;33.42;14.60;;;;;;;7.44;100.00;99400.41;5026156;28;20042;-54
2022/11/09 02:07:50;;;;;;;35.15;14.32;;;;;;;7.64;100.00;99424.00;5010313;28;20049;-56
2022/11/09 02:10:39;;;;;;;31.25;13.00;;;;;;;7.55;100.00;99403.56;4993080;28;20080;-52
2022/11/09 02:13:07;;;;;;;32.47;13.90;;;;;;;7.64;100.00;99415.41;5023555;28;20049;-55
2022/11/09 02:15:57;;;;;;;37.55;15.00;;;;;;;7.71;100.00;99435.03;4982695;28;20056;-52
2022/11/09 02:18:23;;;;;;;39.17;15.15;;;;;;;7.72;100.00;99431.56;5025981;28;20046;-58
2022/11/09 02:20:53;;;;;;;34.15;15.02;;;;;;;7.71;100.00;99429.88;5005216;28;20120;-56
2022/11/09 02:23:21;;;;;;;31.02;13.57;;;;;;;7.74;100.00;99434.13;5007655;28;20845;-54
2022/11/09 02:25:54;;;;;;;38.08;14.57;;;;;;;7.71;100.00;99431.59;5007003;28;20046;-57
2022/11/09 02:28:21;;;;;;;33.08;14.60;;;;;;;7.47;100.00;99381.38;4991141;28;20042;-56
2022/11/09 02:30:50;;;;;;;38.53;15.55;;;;;;;7.78;100.00;99436.59;5021572;28;20130;-55
2022/11/09 02:33:16;;;;;;;37.17;14.17;;;;;;;7.75;100.00;99428.03;4991484;28;20049;-56
2022/11/09 02:35:42;;;;;;;34.30;14.80;;;;;;;7.82;100.00;99435.59;4999240;28;20724;-51
2022/11/09 02:38:10;;;;;;;35.10;15.20;;;;;;;7.85;100.00;99439.88;5008397;28;20038;-55
2022/11/09 02:40:39;;;;;;;32.97;13.43;;;;;;;7.87;100.00;99435.47;5023785;28;20046;-51
2022/11/09 02:43:07;;;;;;;29.00;11.63;;;;;;;7.84;100.00;99428.66;5018147;28;20631;-53
2022/11/09 02:45:33;;;;;;;35.38;12.93;;;;;;;7.84;100.00;99444.19;5007489;28;20056;-52
2022/11/09 02:47:59;;;;;;;32.78;13.27;;;;;;;7.85;100.00;99448.44;5025246;28;20129;-54
2022/11/09 02:50:26;;;;;;;34.60;13.90;;;;;;;7.73;100.00;99411.72;5008698;28;20879;-54
2022/11/09 02:52:52;;;;;;;31.45;13.13;;;;;;;7.89;100.00;99442.31;4976454;28;20058;-54
2022/11/09 02:55:19;;;;;;;34.97;13.32;;;;;;;7.90;100.00;99438.81;5022250;28;20045;-53
2022/11/09 02:57:45;;;;;;;34.20;12.88;;;;;;;7.93;100.00;99446.53;5025125;28;20042;-55
2022/11/09 03:00:14;;;;;;;29.85;11.88;;;;;;;7.93;100.00;99441.34;5025376;28;20049;-51
2022/11/09 03:02:41;;;;;;;34.60;13.75;;;;;;;7.93;100.00;99443.94;5009717;28;20038;-54
2022/11/09 03:05:07;;;;;;;28.63;12.13;;;;;;;7.93;100.00;99449.09;5025170;28;20038;-56
2022/11/09 03:07:34;;;;;;;30.95;11.73;;;;;;;7.66;100.00;99398.94;5008774;28;20433;-55
2022/11/09 03:10:00;;;;;;;25.10;10.38;;;;;;;7.95;100.00;99444.75;5001773;28;20065;-56
2022/11/09 03:12:28;;;;;;;23.75;11.57;;;;;;;8.04;100.00;99447.06;4990210;28;20045;-52
2022/11/09 03:14:58;;;;;;;25.77;10.98;;;;;;;8.03;100.00;99455.72;5008685;28;20045;-54
2022/11/09 03:17:24;;;;;;;23.83;10.05;;;;;;;8.08;100.00;99453.88;5005473;28;20183;-58
2022/11/09 03:19:50;;;;;;;25.67;12.20;;;;;;;8.13;100.00;99455.47;5007641;28;20037;-54
2022/11/09 03:22:17;;;;;;;26.00;11.57;;;;;;;8.16;100.00;99455.41;5008373;28;20062;-52
2022/11/09 03:24:45;;;;;;;25.67;11.65;;;;;;;8.19;100.00;99450.13;5013354;28;20037;-55
2022/11/09 03:27:11;;;;;;;21.83;11.00;;;;;;;8.19;100.00;99435.44;5019414;28;20125;-55
2022/11/09 03:29:37;;;;;;;22.75;9.93;;;;;;;8.27;100.00;99455.94;5006280;28;20092;-55
2022/11/09 03:32:04;;;;;;;26.85;10.75;;;;;;;8.26;100.00;99454.25;5007604;28;20517;-54
2022/11/09 03:34:30;;;;;;;15.13;7.72;;;;;;;8.24;100.00;99458.59;5007170;28;20598;-55
2022/11/09 03:36:58;;;;;;;24.10;10.73;;;;;;;8.25;100.00;99455.13;5023312;28;20041;-51
2022/11/09 03:39:27;;;;;;;24.17;11.05;;;;;;;8.15;100.00;99451.97;5009186;28;20120;-56
2022/11/09 03:41:53;;;;;;;20.58;10.23;;;;;;;8.28;100.00;99463.66;4995119;28;20050;-55
2022/11/09 03:44:19;;;;;;;24.52;10.23;;;;;;;8.33;100.00;99469.56;5001178;28;20072;-55
2022/11/09 03:46:46;;;;;;;22.52;10.63;;;;;;;8.33;100.00;99476.50;4995723;28;20046;-55
2022/11/09 03:49:13;;;;;;;20.70;10.57;;;;;;;8.32;100.00;99467.06;5007903;28;20060;-52
2022/11/09 03:51:38;;;;;;;20.23;10.10;;;;;;;8.35;100.00;99457.44;5007807;28;20041;-53
2022/11/09 03:54:04;;;;;;;22.23;8.60;;;;;;;8.36;100.00;99469.50;5008030;28;20099;-57
2022/11/09 03:56:30;;;;;;;19.88;10.32;;;;;;;8.38;100.00;99466.84;5007937;28;20046;-56
2022/11/09 03:58:56;;;;;;;19.98;10.40;;;;;;;8.43;100.00;99467.56;5009480;28;20049;-56
2022/11/09 04:01:22;;;;;;;20.35;10.27;;;;;;;8.44;100.00;99466.69;5004137;28;20073;-54
2022/11/09 04:03:48;;;;;;;18.10;9.18;;;;;;;8.43;100.00;99465.81;4991743;28;20054;-56
2022/11/09 04:06:13;;;;;;;20.50;9.75;;;;;;;8.45;100.00;99469.22;5001192;28;20729;-56
2022/11/09 04:08:39;;;;;;;18.52;9.65;;;;;;;8.47;100.00;99470.06;4988252;28;20049;-52
2022/11/09 04:11:05;;;;;;;19.75;9.20;;;;;;;8.46;100.00;99467.50;5014521;28;20152;-56
2022/11/09 04:13:31;;;;;;;17.05;8.55;;;;;;;8.47;100.00;99472.63;5009146;28;20077;-55
2022/11/09 04:15:57;;;;;;;19.83;9.93;;;;;;;8.48;100.00;99470.88;5007853;28;20045;-53
2022/11/09 04:18:23;;;;;;;19.00;10.10;;;;;;;8.32;100.00;99446.34;5010019;28;20046;-54
2022/11/09 04:20:49;;;;;;;16.95;9.57;;;;;;;8.47;100.00;99471.78;5003913;28;20184;-52
2022/11/09 04:23:14;;;;;;;23.17;10.80;;;;;;;8.36;100.00;99440.16;5009182;28;20038;-53
2022/11/09 04:25:41;;;;;;;21.25;10.75;;;;;;;8.52;100.00;99472.50;5006243;28;20429;-53
2022/11/09 04:28:10;;;;;;;22.17;11.45;;;;;;;8.54;100.00;99469.84;5006364;28;20120;-56
2022/11/09 04:30:36;;;;;;;20.63;10.20;;;;;;;8.56;100.00;99470.66;5000363;28;20057;-55
2022/11/09 04:33:03;;;;;;;20.83;11.05;;;;;;;8.52;100.00;99469.06;4997725;28;20054;-54
2022/11/09 04:35:29;;;;;;;19.92;9.60;;;;;;;8.50;100.00;99471.69;5006640;28;20430;-58
2022/11/09 04:37:57;;;;;;;23.05;11.05;;;;;;;8.51;100.00;99470.81;5020081;28;20509;-57
2022/11/09 04:40:25;;;;;;;27.13;11.85;;;;;;;8.56;100.00;99474.09;5014691;28;20148;-52
2022/11/09 04:42:51;;;;;;;20.80;10.15;;;;;;;8.58;100.00;99480.09;5009455;28;20542;-54
2022/11/09 04:45:17;;;;;;;22.10;11.02;;;;;;;8.57;100.00;99470.63;5011775;28;20076;-55
2022/11/09 04:47:43;;;;;;;23.90;11.32;;;;;;;8.60;100.00;99474.84;5011900;28;20044;-55
2022/11/09 04:50:09;;;;;;;16.58;9.07;;;;;;;8.61;100.00;99487.78;5009534;28;20041;-55
2022/11/09 04:52:35;;;;;;;18.50;9.27;;;;;;;8.61;100.00;99481.75;4993406;28;20034;-54
2022/11/09 04:55:01;;;;;;;22.27;11.05;;;;;;;8.60;100.00;99493.84;5010981;28;20509;-57
2022/11/09 04:57:27;;;;;;;24.27;10.18;;;;;;;8.63;100.00;99492.91;5009324;28;20041;-55
2022/11/09 04:59:53;;;;;;;20.35;8.88;;;;;;;8.69;100.00;99498.75;5025431;28;20053;-57
2022/11/09 05:02:19;;;;;;;18.23;9.50;;;;;;;8.71;100.00;99498.72;5010630;28;20038;-55
2022/11/09 05:04:45;;;;;;;19.45;10.45;;;;;;;8.72;100.00;99496.09;5011495;28;20413;-57
2022/11/09 05:07:11;;;;;;;21.98;11.13;;;;;;;8.61;100.00;99473.97;5010726;28;20048;-57
2022/11/09 05:09:37;;;;;;;19.77;10.57;;;;;;;8.77;100.00;99496.78;5007418;28;20800;-54
2022/11/09 05:12:03;;;;;;;17.58;10.18;;;;;;;8.79;100.00;99499.34;5008983;28;20077;-57
2022/11/09 05:14:29;;;;;;;17.88;9.75;;;;;;;8.80;100.00;99508.78;5010069;28;20046;-55
2022/11/09 05:16:55;;;;;;;20.13;10.85;;;;;;;8.82;100.00;99491.47;5011415;28;20045;-53
2022/11/09 05:19:21;;;;;;;20.08;10.27;;;;;;;8.81;100.00;99494.94;5004025;28;20188;-60
2022/11/09 05:21:46;;;;;;;22.48;9.30;;;;;;;8.78;100.00;99492.47;4991797;28;20505;-58
2022/11/09 05:24:12;;;;;;;20.20;10.65;;;;;;;8.80;100.00;99501.88;4996476;28;20056;-57
2022/11/09 05:26:40;;;;;;;25.08;11.40;;;;;;;8.77;100.00;99501.97;4999929;28;20046;-53
2022/11/09 05:29:10;;;;;;;23.38;11.63;;;;;;;8.81;100.00;99503.56;4991891;28;20038;-59
2022/11/09 05:31:37;;;;;;;22.52;11.52;;;;;;;8.58;100.00;99458.53;5011256;28;20034;-51
2022/11/09 05:34:04;;;;;;;26.10;11.48;;;;;;;8.84;100.00;99500.06;5009491;28;20056;-59
2022/11/09 05:36:32;;;;;;;22.75;11.10;;;;;;;8.87;100.00;99515.50;5008840;28;20057;-56
2022/11/09 05:38:58;;;;;;;22.35;10.68;;;;;;;8.88;100.00;99507.69;5010378;28;20096;-56
2022/11/09 05:41:24;;;;;;;20.02;11.15;;;;;;;8.93;100.00;99508.41;5009292;28;20050;-53
2022/11/09 05:43:51;;;;;;;16.15;8.95;;;;;;;8.99;100.00;99501.31;5009924;28;20038;-57
2022/11/09 05:46:17;;;;;;;19.20;11.73;;;;;;;9.03;100.00;99503.78;5010828;28;20045;-60
2022/11/09 05:48:44;;;;;;;21.05;10.90;;;;;;;9.06;100.00;99502.81;5007853;28;20044;-57
2022/11/09 05:51:12;;;;;;;17.65;10.18;;;;;;;9.11;100.00;99500.91;4987588;28;20053;-57
2022/11/09 05:53:39;;;;;;;20.87;10.17;;;;;;;9.11;100.00;99516.47;5025155;28;20042;-54
2022/11/09 05:56:09;;;;;;;21.17;10.73;;;;;;;9.09;100.00;99506.19;5009751;28;20140;-53
2022/11/09 05:58:37;;;;;;;17.58;9.63;;;;;;;9.14;100.00;99513.81;5022586;28;20045;-55
2022/11/09 06:01:15;;;;;;;20.38;10.23;;;;;;;9.19;100.00;99509.31;5004990;28;20046;-57
2022/11/09 06:03:42;;;;;;;21.90;10.77;;;;;;;9.18;100.00;99511.06;5003592;28;20026;-55
2022/11/09 06:06:11;;;;;;;18.25;9.45;;;;;;;9.20;100.00;99518.81;4990879;28;20080;-57
2022/11/09 06:08:37;;;;;;;15.57;6.72;;;;;;;9.16;100.00;99519.81;5007952;28;20038;-60
2022/11/09 06:11:06;;;;;;;18.42;9.70;;;;;;;9.15;100.00;99518.09;4983740;28;20042;-57
2022/11/09 06:13:32;;;;;;;20.83;10.10;;;;;;;9.14;100.00;99517.25;5009487;28;20131;-53
2022/11/09 06:15:59;;;;;;;19.52;9.75;;;;;;;9.06;100.00;99502.81;5008760;28;20132;-56
2022/11/09 06:18:26;;;;;;;18.90;9.65;;;;;;;9.17;100.00;99522.34;5009740;28;20053;-59
2022/11/09 06:20:53;;;;;;;18.60;8.95;;;;;;;9.16;100.00;99517.22;5006066;28;20152;-59
2022/11/09 06:23:24;;;;;;;15.05;8.15;;;;;;;9.15;100.00;99533.66;5008434;28;20137;-56
2022/11/09 06:25:56;;;;;;;19.67;9.68;;;;;;;9.12;100.00;99519.03;5007505;28;20068;-58
2022/11/09 06:28:23;;;;;;;16.55;8.48;;;;;;;9.15;100.00;99525.88;5018934;28;20077;-56
2022/11/09 06:30:49;;;;;;;19.45;9.60;;;;;;;9.14;100.00;99538.00;5007841;28;20091;-55
2022/11/09 06:33:14;;;;;;;19.48;9.02;;;;;;;9.12;100.00;99521.63;4990849;28;20038;-58
2022/11/09 06:35:40;;;;;;;18.23;8.98;;;;;;;9.17;100.00;99537.03;5008959;28;20496;-54
2022/11/09 06:38:08;;;;;;;21.10;10.45;;;;;;;9.21;100.00;99533.47;5010220;28;20038;-58
2022/11/09 06:40:35;;;;;;;20.88;10.98;;;;;;;9.23;100.00;99535.13;5008427;28;20053;-56
2022/11/09 06:43:02;;;;;;;19.65;9.82;;;;;;;9.14;100.00;99519.84;5010603;28;20037;-54
2022/11/09 06:45:29;;;;;;;20.77;9.35;;;;;;;9.22;100.00;99538.59;5004969;28;20572;-57
2022/11/09 06:47:56;;;;;;;20.73;11.85;;;;;;;9.26;100.00;99534.19;5020987;28;20042;-58
2022/11/09 06:50:22;;;;;;;20.80;8.50;;;;;;;9.24;100.00;99552.38;5004370;28;20038;-53
2022/11/09 06:52:48;;;;;;;14.75;8.05;;;;;;;9.04;100.00;99521.03;5010643;28;20060;-57
2022/11/09 06:55:14;;;;;;;18.95;9.43;;;;;;;9.21;100.00;99551.66;5007563;28;20537;-56
2022/11/09 06:57:41;;;;;;;17.10;9.60;;;;;;;9.13;100.00;99532.84;5002847;28;20133;-57
2022/11/09 07:00:08;;;;;;;24.58;10.60;;;;;;;9.31;100.00;99558.25;4990102;28;20065;-55
2022/11/09 07:02:33;;;;;;;17.73;9.07;;;;;;;9.38;100.00;99559.72;5009921;28;20500;-52
2022/11/09 07:04:59;;;;;;;16.35;8.90;;;;;;;9.37;100.00;99563.22;5009866;28;20506;-55
2022/11/09 07:07:26;;;;;;;16.50;9.13;;;;;;;9.31;100.00;99550.47;5001521;28;20049;-56
2022/11/09 07:09:52;;;;;;;18.40;9.82;;;;;;;9.50;100.00;99574.06;5004403;28;20050;-55
2022/11/09 07:12:18;;;;;;;20.70;10.18;;;;;;;9.54;100.00;99570.47;5006567;28;20044;-55
2022/11/09 07:14:44;;;;;;;18.45;8.98;;;;;;;9.32;100.00;99544.34;5006173;28;20476;-56
2022/11/09 07:17:10;;;;;;;17.00;8.45;;;;;;;9.55;100.00;99573.03;5006231;28;20044;-56
2022/11/09 07:19:35;;;;;;;18.52;9.32;;;;;;;9.56;100.00;99572.13;5005541;28;20067;-54
2022/11/09 07:22:01;;;;;;;14.65;7.43;;;;;;;9.51;100.00;99573.19;5009205;28;20089;-53
2022/11/09 07:24:28;;;;;;;18.15;9.23;;;;;;;9.44;100.00;99567.31;5007122;28;20038;-61
2022/11/09 07:26:53;;;;;;;17.55;8.30;;;;;;;9.51;100.00;99574.03;5008007;28;20137;-57
2022/11/09 07:29:19;;;;;;;10.82;6.10;;;;;;;9.26;100.00;99527.22;5005083;28;20125;-55
2022/11/09 07:31:45;;;;;;;20.00;8.43;;;;;;;9.53;100.00;99574.81;5008912;28;20406;-56
2022/11/09 07:34:11;;;;;;;14.23;7.95;;;;;;;9.54;100.00;99575.66;5007497;28;20539;-59
2022/11/09 07:36:37;;;;;;;18.60;8.77;;;;;;;9.54;100.00;99573.91;5007983;28;20180;-54
2022/11/09 07:39:04;;;;;;;17.83;8.25;;;;;;;9.63;100.00;99576.22;5008346;28;20072;-60
2022/11/09 07:41:30;;;;;;;19.73;10.18;;;;;;;9.58;100.00;99577.25;5009249;28;20149;-59
2022/11/09 07:43:57;;;;;;;26.58;10.73;;;;;;;9.64;100.00;99577.91;5006982;28;20041;-57
2022/11/09 07:46:23;;;;;;;21.50;9.60;;;;;;;9.54;100.00;99552.31;5008172;28;20568;-59
2022/11/09 07:48:48;;;;;;;19.40;9.10;;;;;;;9.56;100.00;99571.28;5005181;28;20061;-56
2022/11/09 07:51:14;;;;;;;19.75;10.15;;;;;;;9.60;100.00;99583.25;5003756;28;20042;-51
2022/11/09 07:53:40;;;;;;;16.92;7.55;;;;;;;9.54;100.00;99580.84;5002110;28;20128;-58
2022/11/09 07:56:06;;;;;;;12.98;6.70;;;;;;;9.34;100.00;99555.53;5001013;28;20180;-52
2022/11/09 07:58:34;;;;;;;17.52;8.20;;;;;;;9.45;100.00;99582.00;4999011;28;20067;-58
2022/11/09 08:01:00;;;;;;;16.90;8.43;;;;;;;9.47;100.00;99581.97;4996221;28;20038;-57
2022/11/09 08:03:26;;;;;;;22.17;10.25;;;;;;;9.49;100.00;99581.00;5003248;28;20124;-54
2022/11/09 08:05:54;;;;;;;21.63;9.88;;;;;;;9.37;100.00;99563.22;5001072;28;20049;-54
2022/11/09 08:08:24;;;;;;;20.90;9.77;;;;;;;9.58;100.00;99591.06;5004308;28;20041;-52
2022/11/09 08:10:51;;;;;;;17.98;8.35;;;;;;;9.57;100.00;99599.78;4985103;28;20049;-53
2022/11/09 08:13:18;;;;;;;17.92;9.63;;;;;;;9.54;100.00;99596.41;5010862;28;20041;-56
2022/11/09 08:15:44;;;;;;;15.43;8.52;;;;;;;9.52;100.00;99587.84;5027439;28;20034;-53
2022/11/09 08:18:13;;;;;;;19.15;9.07;;;;;;;9.55;100.00;99593.78;5012922;28;20053;-53
2022/11/09 08:20:39;;;;;;;15.85;7.30;;;;;;;9.59;100.00;99586.75;5008959;28;20057;-50
2022/11/09 08:23:05;;;;;;;16.58;8.60;;;;;;;9.62;100.00;99590.09;5023087;28;20092;-54
2022/11/09 08:25:34;;;;;;;18.90;8.38;;;;;;;9.44;100.00;99545.72;4977504;28;20595;-55
2022/11/09 08:28:02;;;;;;;17.60;8.73;;;;;;;9.66;100.00;99591.69;5007101;28;20045;-52
2022/11/09 08:30:28;;;;;;;12.63;6.18;;;;;;;9.65;100.00;99590.00;5007946;28;20109;-53
2022/11/09 08:32:54;;;;;;;17.77;8.57;;;;;;;9.68;100.00;99596.84;5008022;28;20551;-55
2022/11/09 08:35:22;;;;;;;19.08;9.25;;;;;;;9.73;100.00;99588.00;5009524;28;20183;-57
2022/11/09 08:37:49;;;;;;;18.48;9.70;;;;;;;9.82;100.00;99594.66;5007931;28;20042;-55
2022/11/09 08:40:17;;;;;;;21.33;9.70;;;;;;;9.85;100.00;99593.69;5016194;28;20042;-55
2022/11/09 08:42:43;;;;;;;17.90;8.50;;;;;;;9.82;100.00;99594.66;5009982;28;20071;-58
2022/11/09 08:45:10;;;;;;;17.52;9.65;;;;;;;9.80;100.00;99593.84;5003895;28;20998;-57
2022/11/09 08:47:37;;;;;;;19.45;7.88;;;;;;;9.81;100.00;99597.28;4991971;28;20037;-55
2022/11/09 08:50:04;;;;;;;17.42;8.10;;;;;;;9.78;100.00;99580.94;5025290;28;20054;-55
2022/11/09 08:52:30;;;;;;;17.17;8.43;;;;;;;9.72;100.00;99570.75;5011168;28;20061;-58
2022/11/09 08:54:56;;;;;;;19.70;8.95;;;;;;;9.85;100.00;99593.69;5005553;28;20046;-57
2022/11/09 08:57:22;;;;;;;16.17;8.15;;;;;;;9.84;100.00;99592.84;5007918;28;20041;-62
2022/11/09 08:59:48;;;;;;;16.60;8.68;;;;;;;9.79;100.00;99577.41;5008372;28;20049;-61
2022/11/09 09:02:14;;;;;;;15.85;7.75;;;;;;;9.81;100.00;99585.16;5022324;28;20627;-59
2022/11/09 09:04:40;;;;;;;21.25;9.55;;;;;;;9.79;100.00;99593.00;5008481;28;20069;-58
2022/11/09 09:07:06;;;;;;;12.85;6.30;;;;;;;9.74;100.00;99575.84;5023860;28;20059;-56
2022/11/09 09:09:33;;;;;;;18.73;8.15;;;;;;;9.78;100.00;99578.34;5009074;28;20045;-60
2022/11/09 09:11:59;;;;;;;14.80;6.90;;;;;;;9.81;100.00;99581.72;4989006;28;20072;-58
2022/11/09 09:14:25;;;;;;;12.95;6.72;;;;;;;9.73;100.00;99558.63;5004366;28;20080;-59
2022/11/09 09:16:51;;;;;;;15.73;8.27;;;;;;;9.86;100.00;99582.41;5001939;28;20046;-55
2022/11/09 09:19:18;;;;;;;16.38;7.03;;;;;;;9.89;100.00;99587.53;5009962;28;20072;-55
2022/11/09 09:21:44;;;;;;;15.32;8.13;;;;;;;9.92;100.00;99597.78;5006941;28;20053;-61
2022/11/09 09:24:09;;;;;;;16.90;8.48;;;;;;;9.90;100.00;99584.84;5005495;28;20052;-59
2022/11/09 09:26:35;;;;;;;17.15;8.38;;;;;;;9.98;100.00;99582.88;5005830;28;20034;-61
2022/11/09 09:29:01;;;;;;;12.48;6.50;;;;;;;9.99;100.00;99579.38;5005430;28;20076;-53
2022/11/09 09:31:27;;;;;;;17.23;9.07;;;;;;;9.68;100.00;99543.16;4997948;28;20134;-53
2022/11/09 09:33:53;;;;;;;19.05;8.82;;;;;;;9.97;100.00;99578.56;5005810;28;20144;-56
2022/11/09 09:36:21;;;;;;;17.70;8.88;;;;;;;9.78;100.00;99538.53;5006180;28;20038;-58
2022/11/09 09:38:51;;;;;;;11.68;6.80;;;;;;;10.06;100.00;99578.25;5005740;28;20113;-55
2022/11/09 09:41:34;;;;;;;16.80;7.97;;;;;;;9.80;100.00;99549.69;5008207;28;20437;-57
2022/11/09 09:44:24;;;;;;;17.38;8.70;;;;;;;10.06;100.00;99585.19;5007332;28;20050;-51
2022/11/09 09:47:13;;;;;;;18.80;8.70;;;;;;;10.00;100.00;99583.63;5021779;28;20125;-53
2022/11/09 09:50:03;;;;;;;20.20;9.40;;;;;;;10.01;100.00;99579.28;4984742;28;20136;-54
2022/11/09 09:52:35;;;;;;;19.00;8.60;;;;;;;9.83;100.00;99548.78;5009774;28;20042;-53
2022/11/09 09:55:30;;;;;;;12.68;6.28;;;;;;;9.99;100.00;99570.72;5001791;28;20042;-53
2022/11/09 09:58:04;;;;;;;18.02;7.97;;;;;;;9.96;100.00;99583.78;5010057;28;20053;-53
2022/11/09 10:00:31;;;;;;;17.88;7.57;;;;;;;9.81;100.00;99554.00;5024882;28;20045;-50
2022/11/09 10:02:56;;;;;;;12.77;7.00;;;;;;;9.88;100.00;99572.84;4998188;28;20132;-53
2022/11/09 10:05:35;;;;;;;17.33;9.02;;;;;;;9.86;100.00;99572.88;5007599;28;20140;-56
2022/11/09 10:08:24;;;;;;;15.45;7.28;;;;;;;9.86;100.00;99575.47;5000042;28;20054;-51
2022/11/09 10:11:04;;;;;;;17.38;7.80;;;;;;;9.88;100.00;99581.47;5002995;28;20092;-53
2022/11/09 10:14:26;;;;;;;19.05;8.52;;;;;;;9.95;100.00;99572.56;4995681;28;20443;-56
2022/11/09 10:17:21;;;;;;;15.25;7.38;;;;;;;9.98;100.00;99582.00;4957575;28;20046;-55
2022/11/09 10:20:00;;;;;;;20.33;8.98;;;;;;;9.99;100.00;99581.13;5003968;28;20501;-51
2022/11/09 10:22:44;;;;;;;19.65;8.90;;;;;;;10.08;100.00;99578.19;5004842;28;20053;-53
2022/11/09 10:25:20;;;;;;;14.88;7.47;;;;;;;10.08;100.00;99581.66;5004685;28;20042;-54
2022/11/09 10:27:58;;;;;;;17.30;8.02;;;;;;;10.07;100.00;99573.91;5003830;28;20069;-57
2022/11/09 10:30:26;;;;;;;15.18;7.70;;;;;;;10.15;100.00;99582.28;4993193;28;20559;-51
2022/11/09 10:33:20;;;;;;;14.63;6.75;;;;;;;10.14;100.00;99578.00;5015776;28;20041;-53
2022/11/09 10:36:07;;;;;;;17.92;7.90;;;;;;;10.12;100.00;99579.78;4996288;28;20787;-55
2022/11/09 10:38:39;;;;;;;18.85;9.13;;;;;;;10.13;100.00;99582.34;5006744;28;20052;-52
2022/11/09 10:41:31;;;;;;;12.00;6.80;;;;;;;10.10;100.00;99592.00;5010157;28;20038;-52
2022/11/09 10:44:18;;;;;;;16.73;7.72;;;;;;;10.01;100.00;99589.69;5008722;28;20104;-51
2022/11/09 10:47:15;;;;;;;14.45;7.30;;;;;;;9.98;100.00;99582.00;5022809;28;20041;-56
2022/11/09 10:50:11;;;;;;;21.52;9.20;;;;;;;9.97;100.00;99588.09;4991320;28;20033;-54
2022/11/09 10:53:13;;;;;;;25.00;10.02;;;;;;;9.93;100.00;99587.38;5007368;28;20076;-51
2022/11/09 10:55:57;;;;;;;15.23;7.57;;;;;;;9.88;100.00;99591.00;5007681;28;20041;-53
2022/11/09 10:58:50;;;;;;;19.55;7.85;;;;;;;9.69;100.00;99555.25;5004211;28;20104;-52
2022/11/09 11:01:36;;;;;;;21.15;9.07;;;;;;;9.88;100.00;99580.63;5001564;28;20042;-52
2022/11/09 11:04:23;;;;;;;17.25;7.65;;;;;;;9.87;100.00;99582.38;5009989;28;20046;-53
2022/11/09 11:07:19;;;;;;;15.10;7.78;;;;;;;9.88;100.00;99583.22;5008961;28;20037;-50
2022/11/09 11:10:10;;;;;;;13.75;7.00;;;;;;;9.77;100.00;99566.25;5011498;28;20041;-54
2022/11/09 11:13:00;;;;;;;19.08;9.18;;;;;;;9.87;100.00;99584.13;5004863;28;20671;-55
2022/11/09 11:15:45;;;;;;;22.48;9.07;;;;;;;9.63;100.00;99536.47;5006958;28;20142;-54
2022/11/09 11:18:31;;;;;;;23.35;10.70;;;;;;;9.89;100.00;99588.34;5005503;28;20472;-52
2022/11/09 11:21:17;;;;;;;24.90;10.82;;;;;;;9.84;100.00;99582.44;5008101;28;20092;-51
2022/11/09 11:24:15;;;;;;;14.13;6.80;;;;;;;9.84;100.00;99579.84;5007894;28;20517;-53
2022/11/09 11:27:05;;;;;;;20.38;10.65;;;;;;;9.81;100.00;99579.13;4992327;28;20077;-52
2022/11/09 11:30:32;;;;;;;19.60;10.05;;;;;;;9.80;100.00;99575.66;5021589;28;20137;-55
2022/11/09 11:33:20;;;;;;;19.13;9.18;;;;;;;9.84;100.00;99576.44;5007374;28;20054;-51
2022/11/09 11:36:39;;;;;;;25.83;9.60;;;;;;;9.88;100.00;99575.44;5009122;28;20038;-53